Terminal Aerodrome Forecast
Issued by NWS

Home | Current Version | Previous Version | Graphics & Text | Print | Product List | Glossary On
Versions: 1 2 3 4 5 6 7 8 9 10 11 12 13
864
FTUS43 KMPX 241726
TAFRWF
TAF
KRWF 241726Z 2418/2518 02014G22KT P6SM VCSH SCT040 BKN070
     FM250100 01005KT P6SM FEW200
     FM251500 26006KT P6SM SCT250=

USA.gov is the U.S. government's official web portal to all federal, state and local government web resources and services.